Time;durP1;ratioP1;P1;durP2;ratioP2;P2;SDS_P1;SDS_P2;PMS_P1;PMS_P2;Temp;Humidity;BMP_temperature;BMP_pressure;BME280_temperature;BME280_humidity;BME280_pressure;Samples;Min_cycle;Max_cycle;Signal;HPM_P1;HPM_P2
2022/02/26 00:00:09;;;;;;;18.77;3.00;;;;;;;-141.50;100.00;63355.56;4931373;29;20075;-77
2022/02/26 00:02:35;;;;;;;18.73;3.22;;;;;;;-141.50;100.00;63355.56;4932903;29;20055;-77
2022/02/26 00:05:03;;;;;;;13.85;3.00;;;;;;;-141.50;100.00;63355.56;4934220;29;20074;-78
2022/02/26 00:07:29;;;;;;;15.93;2.88;;;;;;;-141.50;100.00;63355.56;4943450;29;20527;-77
2022/02/26 00:09:56;;;;;;;22.60;3.45;;;;;;;-141.50;100.00;63355.56;4942266;29;20056;-77
2022/02/26 00:12:22;;;;;;;21.77;3.75;;;;;;;-141.50;100.00;63355.56;4938107;29;20063;-77
2022/02/26 00:14:49;;;;;;;12.90;3.20;;;;;;;-141.50;100.00;63355.56;4934492;29;20056;-76
2022/02/26 00:17:16;;;;;;;13.65;3.30;;;;;;;-141.50;100.00;63355.56;4936922;29;20075;-77
2022/02/26 00:19:42;;;;;;;15.80;3.20;;;;;;;-141.50;100.00;63355.56;4937813;29;20055;-76
2022/02/26 00:22:09;;;;;;;19.38;3.15;;;;;;;-141.50;100.00;63355.56;4935150;29;20078;-78
2022/02/26 00:24:36;;;;;;;28.08;3.78;;;;;;;-141.50;100.00;63355.56;4936208;29;20464;-77
2022/02/26 00:27:03;;;;;;;17.95;3.17;;;;;;;-141.50;100.00;63355.56;4934766;29;20056;-76
2022/02/26 00:29:32;;;;;;;24.65;3.75;;;;;;;-141.50;100.00;63355.56;4934058;29;20055;-77
2022/02/26 00:31:59;;;;;;;24.80;3.20;;;;;;;-141.50;100.00;63355.56;4934400;29;20393;-79
2022/02/26 00:34:31;;;;;;;14.10;3.13;;;;;;;-141.50;100.00;63355.56;4937924;29;20048;-77
2022/02/26 00:36:58;;;;;;;20.45;3.08;;;;;;;-141.50;100.00;63355.56;4937477;29;20176;-77
2022/02/26 00:39:25;;;;;;;18.30;3.17;;;;;;;-141.50;100.00;63355.56;4931464;29;20090;-78
2022/02/26 00:41:51;;;;;;;22.73;3.38;;;;;;;-141.50;100.00;63355.56;4933754;29;20055;-78
2022/02/26 00:44:18;;;;;;;23.35;3.97;;;;;;;-141.50;100.00;63355.56;4936488;29;20059;-77
2022/02/26 00:46:46;;;;;;;20.42;3.25;;;;;;;-141.50;100.00;63355.56;4933612;29;20066;-79
2022/02/26 00:51:59;;;;;;;22.73;3.95;;;;;;;-141.50;100.00;63355.56;4933697;29;20052;-79
2022/02/26 00:54:26;;;;;;;18.25;3.17;;;;;;;-141.50;100.00;63355.56;4932895;29;20441;-78
2022/02/26 00:56:53;;;;;;;20.63;3.20;;;;;;;-141.50;100.00;63355.56;4932267;29;20075;-79
2022/02/26 00:59:19;;;;;;;33.38;3.28;;;;;;;-141.50;100.00;63355.56;4932048;29;20052;-78
2022/02/26 01:01:46;;;;;;;19.15;3.22;;;;;;;-141.50;100.00;63355.56;4917128;29;20457;-77
2022/02/26 01:04:13;;;;;;;18.10;3.00;;;;;;;-141.50;100.00;63355.56;4913218;29;20060;-77
2022/02/26 01:06:40;;;;;;;20.25;4.03;;;;;;;-141.50;100.00;63355.56;4913760;29;20115;-75
2022/02/26 01:09:07;;;;;;;28.65;4.05;;;;;;;-141.50;100.00;63355.56;4913615;29;20076;-76
2022/02/26 01:11:33;;;;;;;24.98;3.42;;;;;;;-141.50;100.00;63355.56;4912096;29;20064;-77
2022/02/26 01:14:00;;;;;;;23.60;2.95;;;;;;;-141.50;100.00;63355.56;4910733;29;20465;-77
2022/02/26 01:16:33;;;;;;;25.45;3.00;;;;;;;-141.50;100.00;63355.56;4912896;29;20072;-75
2022/02/26 01:19:00;;;;;;;19.17;2.78;;;;;;;-141.50;100.00;63355.56;4915600;29;20067;-76
2022/02/26 01:21:26;;;;;;;20.65;3.05;;;;;;;-141.50;100.00;63355.56;4916091;29;20052;-78
2022/02/26 01:23:57;;;;;;;30.30;3.17;;;;;;;-141.50;100.00;63355.56;4914379;29;20054;-78
2022/02/26 01:26:24;;;;;;;24.48;3.20;;;;;;;-141.50;100.00;63355.56;4916093;29;20083;-77
2022/02/26 01:28:51;;;;;;;21.48;2.75;;;;;;;-141.50;100.00;63355.56;4915495;29;20087;-76
2022/02/26 01:31:18;;;;;;;24.02;3.30;;;;;;;-141.50;100.00;63355.56;4913066;29;20056;-75
2022/02/26 01:33:45;;;;;;;24.70;2.70;;;;;;;-141.50;100.00;63355.56;4915029;29;20056;-78
2022/02/26 01:36:12;;;;;;;19.52;3.53;;;;;;;-141.50;100.00;63355.56;4914111;29;20469;-77
2022/02/26 01:38:39;;;;;;;29.33;3.05;;;;;;;-141.50;100.00;63355.56;4914965;29;20048;-77
2022/02/26 01:41:06;;;;;;;25.58;3.03;;;;;;;-141.50;100.00;63355.56;4914035;29;20143;-77
2022/02/26 01:43:34;;;;;;;24.25;3.67;;;;;;;-141.50;100.00;63355.56;4914538;29;20056;-77
2022/02/26 01:46:07;;;;;;;29.08;2.88;;;;;;;-141.50;100.00;63355.56;4913874;29;20684;-76
2022/02/26 01:48:35;;;;;;;26.15;3.38;;;;;;;-141.50;100.00;63355.56;4916758;29;20062;-78
2022/02/26 01:51:06;;;;;;;22.48;2.78;;;;;;;-141.50;100.00;63355.56;4914276;29;20098;-76
2022/02/26 01:53:33;;;;;;;22.08;2.75;;;;;;;-141.50;100.00;63355.56;4915018;29;20468;-78
2022/02/26 01:56:01;;;;;;;23.50;2.90;;;;;;;-141.50;100.00;63355.56;4914605;29;20048;-77
2022/02/26 01:58:31;;;;;;;29.30;4.10;;;;;;;-141.50;100.00;63355.56;4913590;29;20547;-77
2022/02/26 02:00:58;;;;;;;18.38;2.58;;;;;;;-141.50;100.00;63355.56;4911852;29;20044;-78
2022/02/26 02:03:25;;;;;;;31.42;2.70;;;;;;;-141.50;100.00;63355.56;4912407;29;20068;-78
2022/02/26 02:05:57;;;;;;;34.75;2.92;;;;;;;-141.50;100.00;63355.56;4914796;29;20123;-77
2022/02/26 02:08:24;;;;;;;32.67;3.25;;;;;;;-141.50;100.00;63355.56;4914510;29;20112;-77
2022/02/26 02:10:52;;;;;;;28.90;3.30;;;;;;;-141.50;100.00;63355.56;4914740;29;20044;-77
2022/02/26 02:13:20;;;;;;;20.10;2.45;;;;;;;-141.50;100.00;63355.56;4913526;29;20052;-77
2022/02/26 02:15:48;;;;;;;27.25;2.78;;;;;;;-141.50;100.00;63355.56;4913330;29;20062;-77
2022/02/26 02:18:16;;;;;;;24.33;2.80;;;;;;;-141.50;100.00;63355.56;4915107;29;20111;-78
2022/02/26 02:20:43;;;;;;;31.85;3.90;;;;;;;-141.50;100.00;63355.56;4914778;29;20099;-76
2022/02/26 02:23:13;;;;;;;21.38;2.88;;;;;;;-141.50;100.00;63355.56;4913714;29;20052;-76
2022/02/26 02:25:43;;;;;;;27.50;2.67;;;;;;;-141.50;100.00;63355.56;4915081;29;20059;-77
2022/02/26 02:28:09;;;;;;;18.98;2.75;;;;;;;-141.50;100.00;63355.56;4913529;29;20059;-77
2022/02/26 02:30:37;;;;;;;29.55;2.90;;;;;;;-141.50;100.00;63355.56;4912350;29;20449;-78
2022/02/26 02:33:05;;;;;;;25.52;3.10;;;;;;;-141.50;100.00;63355.56;4914922;29;20409;-78
2022/02/26 02:35:38;;;;;;;23.83;2.92;;;;;;;-141.50;100.00;63355.56;4915566;29;20071;-78
2022/02/26 02:38:07;;;;;;;29.88;3.95;;;;;;;-141.50;100.00;63355.56;4914469;29;20048;-78
2022/02/26 02:40:35;;;;;;;27.90;2.65;;;;;;;-141.50;100.00;63355.56;4913829;29;20048;-76
2022/02/26 02:43:04;;;;;;;24.05;3.08;;;;;;;-141.50;100.00;63355.56;4912151;29;20127;-77
2022/02/26 02:45:31;;;;;;;20.88;2.38;;;;;;;-141.50;100.00;63355.56;4912836;29;20250;-78
2022/02/26 02:47:58;;;;;;;22.55;3.67;;;;;;;-141.50;100.00;63355.56;4915424;29;20048;-77
2022/02/26 02:50:25;;;;;;;21.65;2.60;;;;;;;-141.50;100.00;63355.56;4918422;29;20052;-78
2022/02/26 02:52:52;;;;;;;29.77;3.53;;;;;;;-141.50;100.00;63355.56;4918263;29;20095;-77
2022/02/26 02:55:21;;;;;;;14.88;2.28;;;;;;;-141.50;100.00;63355.56;4917025;29;20497;-78
2022/02/26 02:57:50;;;;;;;16.15;2.70;;;;;;;-141.50;100.00;63355.56;4915766;29;20115;-77
2022/02/26 03:00:19;;;;;;;27.30;2.88;;;;;;;-141.50;100.00;63355.56;4912492;29;20657;-76
2022/02/26 03:02:46;;;;;;;23.05;2.65;;;;;;;-141.50;100.00;63355.56;4912473;29;20550;-77
2022/02/26 03:05:15;;;;;;;17.77;2.28;;;;;;;-141.50;100.00;63355.56;4912520;29;20488;-79
2022/02/26 03:07:42;;;;;;;21.20;2.70;;;;;;;-141.50;100.00;63355.56;4913913;29;20135;-78
2022/02/26 03:10:09;;;;;;;22.95;2.40;;;;;;;-141.50;100.00;63355.56;4913730;29;20465;-78
2022/02/26 03:12:35;;;;;;;28.40;2.45;;;;;;;-141.50;100.00;63355.56;4920281;29;20063;-78
2022/02/26 03:15:03;;;;;;;23.45;2.72;;;;;;;-141.50;100.00;63355.56;4942283;29;20058;-79
2022/02/26 03:17:29;;;;;;;23.17;2.72;;;;;;;-141.50;100.00;63355.56;4948721;28;20047;-77
2022/02/26 03:19:56;;;;;;;28.17;3.20;;;;;;;-141.50;100.00;63355.56;4932881;29;20106;-77
2022/02/26 03:22:23;;;;;;;34.20;3.70;;;;;;;-141.50;100.00;63355.56;4931736;29;20060;-77
2022/02/26 03:24:49;;;;;;;17.50;2.38;;;;;;;-141.50;100.00;63355.56;4931675;29;20052;-78
2022/02/26 03:27:16;;;;;;;34.85;3.33;;;;;;;-141.50;100.00;63355.56;4931883;29;20157;-78
2022/02/26 03:29:43;;;;;;;25.35;3.63;;;;;;;-141.50;100.00;63355.56;4930222;29;20059;-77
2022/02/26 03:32:10;;;;;;;21.10;3.38;;;;;;;-141.50;100.00;63355.56;4928809;29;20074;-77
2022/02/26 03:34:37;;;;;;;26.92;3.13;;;;;;;-141.50;100.00;63355.56;4931938;29;20052;-79
2022/02/26 03:37:04;;;;;;;23.17;3.42;;;;;;;-141.50;100.00;63355.56;4933501;29;20087;-79
2022/02/26 03:39:32;;;;;;;24.63;3.03;;;;;;;-141.50;100.00;63355.56;4932399;29;20051;-77
2022/02/26 03:42:00;;;;;;;29.05;3.05;;;;;;;-141.50;100.00;63355.56;4931912;29;20095;-78
2022/02/26 03:44:27;;;;;;;27.00;2.78;;;;;;;-141.50;100.00;63355.56;4931446;29;20134;-76
2022/02/26 03:46:55;;;;;;;20.65;3.33;;;;;;;-141.50;100.00;63355.56;4931351;29;20456;-77
2022/02/26 03:49:22;;;;;;;31.88;3.45;;;;;;;-141.50;100.00;63355.56;4931091;29;20098;-77
2022/02/26 03:51:48;;;;;;;23.00;2.30;;;;;;;-141.50;100.00;63355.56;4931787;29;20286;-77
2022/02/26 03:54:15;;;;;;;19.25;2.63;;;;;;;-141.50;100.00;63355.56;4932530;29;20052;-77
2022/02/26 03:56:42;;;;;;;22.70;3.08;;;;;;;-141.50;100.00;63355.56;4932780;29;20055;-77
2022/02/26 03:59:09;;;;;;;29.00;3.67;;;;;;;-141.50;100.00;63355.56;4931754;29;20594;-78
2022/02/26 04:01:36;;;;;;;23.25;2.53;;;;;;;-141.50;100.00;63355.56;4931205;29;20279;-77
2022/02/26 04:04:04;;;;;;;29.60;2.92;;;;;;;-141.50;100.00;63355.56;4932623;29;20504;-78
2022/02/26 04:06:31;;;;;;;18.40;2.80;;;;;;;-141.50;100.00;63355.56;4933753;29;20118;-79
2022/02/26 04:08:57;;;;;;;26.25;3.15;;;;;;;-141.50;100.00;63355.56;4932299;29;20052;-77
2022/02/26 04:11:24;;;;;;;21.40;2.88;;;;;;;-141.50;100.00;63355.56;4933472;29;20087;-78
2022/02/26 04:13:50;;;;;;;21.58;2.70;;;;;;;-141.50;100.00;63355.56;4933333;29;20087;-78
2022/02/26 04:16:17;;;;;;;26.02;3.00;;;;;;;-141.50;100.00;63355.56;4934141;29;20059;-78
2022/02/26 04:18:45;;;;;;;19.00;2.60;;;;;;;-141.50;100.00;63355.56;4935306;29;20079;-78
2022/02/26 04:21:13;;;;;;;27.65;3.65;;;;;;;-141.50;100.00;63355.56;4935535;29;20074;-79
2022/02/26 04:23:40;;;;;;;27.58;4.05;;;;;;;-141.50;100.00;63355.56;4934318;29;20067;-77
2022/02/26 04:26:07;;;;;;;23.95;3.63;;;;;;;-141.50;100.00;63355.56;4934666;29;20051;-78
2022/02/26 04:28:34;;;;;;;27.30;2.78;;;;;;;-141.50;100.00;63355.56;4936375;29;20283;-78
2022/02/26 04:31:00;;;;;;;25.13;2.58;;;;;;;-141.50;100.00;63355.56;4932920;29;20150;-78
2022/02/26 04:33:28;;;;;;;21.40;2.47;;;;;;;-141.50;100.00;63355.56;4933917;29;20452;-78
2022/02/26 04:35:56;;;;;;;23.48;2.42;;;;;;;-141.50;100.00;63355.56;4936098;29;20052;-78
2022/02/26 04:38:22;;;;;;;25.02;2.95;;;;;;;-141.50;100.00;63355.56;4936399;29;20496;-78
2022/02/26 04:40:51;;;;;;;24.65;3.38;;;;;;;-141.50;100.00;63355.56;4931496;29;20492;-78
2022/02/26 04:43:18;;;;;;;23.20;3.30;;;;;;;-141.50;100.00;63355.56;4931256;29;20051;-78
2022/02/26 04:45:45;;;;;;;21.63;2.55;;;;;;;-141.50;100.00;63355.56;4929693;29;20353;-79
2022/02/26 04:48:11;;;;;;;26.05;2.95;;;;;;;-141.50;100.00;63355.56;4932029;29;20154;-78
2022/02/26 04:50:38;;;;;;;28.50;3.10;;;;;;;-141.50;100.00;63355.56;4932358;29;20118;-78
2022/02/26 04:53:04;;;;;;;35.90;3.10;;;;;;;-141.50;100.00;63355.56;4934192;29;20055;-77
2022/02/26 04:55:31;;;;;;;29.92;3.45;;;;;;;-141.50;100.00;63355.56;4934156;29;20484;-77
2022/02/26 04:57:58;;;;;;;23.30;2.40;;;;;;;-141.50;100.00;63355.56;4933254;29;20469;-78
2022/02/26 05:00:24;;;;;;;29.23;2.95;;;;;;;-141.50;100.00;63355.56;4934272;29;20044;-78
2022/02/26 05:02:51;;;;;;;23.77;2.67;;;;;;;-141.50;100.00;63355.56;4933856;29;20567;-77
2022/02/26 05:05:17;;;;;;;19.80;2.83;;;;;;;-141.50;100.00;63355.56;4935661;29;20079;-77
2022/02/26 05:07:44;;;;;;;30.98;3.88;;;;;;;-141.50;100.00;63355.56;4935113;29;20516;-78
2022/02/26 05:10:10;;;;;;;36.10;3.00;;;;;;;-141.50;100.00;63355.56;4935254;29;20055;-77
2022/02/26 05:12:37;;;;;;;19.92;2.67;;;;;;;-141.50;100.00;63355.56;4935241;29;20091;-78
2022/02/26 05:15:04;;;;;;;23.40;2.85;;;;;;;-141.50;100.00;63355.56;4934257;29;20055;-78
2022/02/26 05:17:31;;;;;;;20.70;2.30;;;;;;;-141.50;100.00;63355.56;4935751;29;20089;-78
2022/02/26 05:19:57;;;;;;;37.20;4.22;;;;;;;-141.50;100.00;63355.56;4938065;29;20507;-78
2022/02/26 05:22:24;;;;;;;22.02;2.83;;;;;;;-141.50;100.00;63355.56;4935685;29;20071;-77
2022/02/26 05:24:50;;;;;;;30.13;3.88;;;;;;;-141.50;100.00;63355.56;4935399;29;20123;-76
2022/02/26 05:27:17;;;;;;;35.63;3.70;;;;;;;-141.50;100.00;63355.56;4934964;29;20051;-77
2022/02/26 05:29:45;;;;;;;37.50;3.28;;;;;;;-141.50;100.00;63355.56;4934454;29;20143;-77
2022/02/26 05:32:11;;;;;;;24.17;3.10;;;;;;;-141.50;100.00;63355.56;4933428;29;20469;-77
2022/02/26 05:34:38;;;;;;;30.45;3.08;;;;;;;-141.50;100.00;63355.56;4935511;29;20070;-77
2022/02/26 05:37:05;;;;;;;32.10;3.38;;;;;;;-141.50;100.00;63355.56;4936754;29;20055;-78
2022/02/26 05:39:31;;;;;;;27.83;2.80;;;;;;;-141.50;100.00;63355.56;4936980;29;20052;-77
2022/02/26 05:41:58;;;;;;;31.67;3.05;;;;;;;-141.50;100.00;63355.56;4933933;29;20163;-77
2022/02/26 05:44:24;;;;;;;34.42;3.30;;;;;;;-141.50;100.00;63355.56;4936128;29;20457;-79
2022/02/26 05:46:51;;;;;;;28.40;3.33;;;;;;;-141.50;100.00;63355.56;4935188;29;20111;-76
2022/02/26 05:49:19;;;;;;;35.40;3.53;;;;;;;-141.50;100.00;63355.56;4935546;29;20058;-78
2022/02/26 05:51:46;;;;;;;38.45;3.75;;;;;;;-141.50;100.00;63355.56;4936631;29;20043;-78
2022/02/26 05:54:13;;;;;;;35.60;3.45;;;;;;;-141.50;100.00;63355.56;4941668;29;20060;-78
2022/02/26 05:56:39;;;;;;;28.58;3.40;;;;;;;-141.50;100.00;63355.56;4940857;29;20052;-78
2022/02/26 05:59:06;;;;;;;35.35;3.50;;;;;;;-141.50;100.00;63355.56;4940317;29;20062;-78
2022/02/26 06:01:32;;;;;;;36.22;3.28;;;;;;;-141.50;100.00;63355.56;4940304;29;20155;-79
2022/02/26 06:03:59;;;;;;;35.20;4.00;;;;;;;-141.50;100.00;63355.56;4941726;29;20055;-77
2022/02/26 06:06:26;;;;;;;31.92;3.70;;;;;;;-141.50;100.00;63355.56;4935590;29;20099;-77
2022/02/26 06:08:52;;;;;;;26.13;3.22;;;;;;;-141.50;100.00;63355.56;4936955;29;20146;-77
2022/02/26 06:11:22;;;;;;;34.10;4.13;;;;;;;-141.50;100.00;63355.56;4936626;29;20059;-77
2022/02/26 06:13:48;;;;;;;29.88;4.00;;;;;;;-141.50;100.00;63355.56;4935434;29;20083;-78
2022/02/26 06:16:15;;;;;;;44.03;5.45;;;;;;;-141.50;100.00;63355.56;4936446;29;20118;-78
2022/02/26 06:18:42;;;;;;;34.72;5.32;;;;;;;-141.50;100.00;63355.56;4939053;29;20488;-79
2022/02/26 06:21:09;;;;;;;51.03;5.45;;;;;;;-141.50;100.00;63355.56;4948884;29;20055;-77
2022/02/26 06:23:35;;;;;;;37.13;4.57;;;;;;;-141.50;100.00;63355.56;4947713;29;20056;-77
2022/02/26 06:26:02;;;;;;;42.63;5.18;;;;;;;-141.50;100.00;63355.56;4934481;29;20058;-77
2022/02/26 06:28:29;;;;;;;42.83;5.20;;;;;;;-141.50;100.00;63355.56;4932925;29;20057;-77
2022/02/26 06:30:55;;;;;;;33.53;5.55;;;;;;;-141.50;100.00;63355.56;4932068;29;20499;-77
2022/02/26 06:33:24;;;;;;;34.67;4.15;;;;;;;-141.50;100.00;63355.56;4931978;29;20052;-77
2022/02/26 06:35:50;;;;;;;32.10;4.07;;;;;;;-141.50;100.00;63355.56;4933791;29;20052;-78
2022/02/26 06:38:17;;;;;;;34.47;3.60;;;;;;;-141.50;100.00;63355.56;4933501;29;20146;-77
2022/02/26 06:40:43;;;;;;;31.23;4.00;;;;;;;-141.50;100.00;63355.56;4932980;29;20119;-77
2022/02/26 06:43:10;;;;;;;45.47;4.72;;;;;;;-141.50;100.00;63355.56;4932957;29;20094;-79
2022/02/26 06:45:37;;;;;;;39.83;4.82;;;;;;;-141.50;100.00;63355.56;4932087;29;20058;-76
2022/02/26 06:48:04;;;;;;;29.25;3.90;;;;;;;-141.50;100.00;63355.56;4934912;29;20496;-79
2022/02/26 06:50:31;;;;;;;31.75;4.72;;;;;;;-141.50;100.00;63355.56;4933424;29;20386;-77
2022/02/26 06:52:57;;;;;;;35.70;5.00;;;;;;;-141.50;100.00;63355.56;4932803;29;20134;-78
2022/02/26 06:55:24;;;;;;;33.63;4.28;;;;;;;-141.50;100.00;63355.56;4935462;29;20083;-78
2022/02/26 06:57:50;;;;;;;34.95;3.92;;;;;;;-141.50;100.00;63355.56;4933596;29;20048;-77
2022/02/26 07:00:17;;;;;;;38.78;4.35;;;;;;;-141.50;100.00;63355.56;4931393;29;20500;-77
2022/02/26 07:02:44;;;;;;;34.17;3.85;;;;;;;-141.50;100.00;63355.56;4932395;29;20067;-78
2022/02/26 07:05:11;;;;;;;42.00;4.72;;;;;;;-141.50;100.00;63355.56;4933369;29;20059;-78
2022/02/26 07:07:38;;;;;;;40.45;4.43;;;;;;;-141.50;100.00;63355.56;4933072;29;20114;-78
2022/02/26 07:10:05;;;;;;;33.40;3.92;;;;;;;-141.50;100.00;63355.56;4934027;29;20119;-78
2022/02/26 07:12:31;;;;;;;45.83;5.82;;;;;;;-141.50;100.00;63355.56;4932316;29;20571;-78
2022/02/26 07:14:58;;;;;;;50.40;5.93;;;;;;;-141.50;100.00;63355.56;4931552;29;20103;-77
2022/02/26 07:17:24;;;;;;;49.92;5.80;;;;;;;-141.50;100.00;63355.56;4941799;29;20079;-77
2022/02/26 07:19:51;;;;;;;35.78;6.15;;;;;;;-141.50;100.00;63355.56;4943132;29;20051;-77
2022/02/26 07:22:17;;;;;;;47.47;6.95;;;;;;;-141.50;100.00;63355.56;4946405;29;20051;-77
2022/02/26 07:24:44;;;;;;;32.75;5.75;;;;;;;-141.50;100.00;63355.56;4939904;29;20068;-77
2022/02/26 07:27:13;;;;;;;49.47;5.55;;;;;;;-141.50;100.00;63355.56;4942521;29;20047;-76
2022/02/26 07:29:40;;;;;;;39.60;4.93;;;;;;;-141.50;100.00;63355.56;4933787;29;20106;-80
2022/02/26 07:32:07;;;;;;;38.75;5.00;;;;;;;-141.50;100.00;63355.56;4930866;29;20043;-77
2022/02/26 07:34:34;;;;;;;39.53;4.63;;;;;;;-141.50;100.00;63355.56;4932815;29;20059;-78
2022/02/26 07:37:01;;;;;;;49.95;5.25;;;;;;;-141.50;100.00;63355.56;4932410;29;20378;-77
2022/02/26 07:39:30;;;;;;;35.83;4.65;;;;;;;-141.50;100.00;63355.56;4932447;29;20185;-78
2022/02/26 07:41:57;;;;;;;32.08;4.25;;;;;;;-141.50;100.00;63355.56;4939654;29;20436;-77
2022/02/26 07:44:24;;;;;;;34.13;5.30;;;;;;;-141.50;100.00;63355.56;4931140;29;20114;-78
2022/02/26 07:46:50;;;;;;;38.30;5.65;;;;;;;-141.50;100.00;63355.56;4931480;29;20059;-78
2022/02/26 07:49:17;;;;;;;30.17;4.55;;;;;;;-141.50;100.00;63355.56;4933021;29;20052;-76
2022/02/26 07:51:46;;;;;;;32.25;4.40;;;;;;;-141.50;100.00;63355.56;4929598;29;20051;-75
2022/02/26 07:54:12;;;;;;;31.95;3.90;;;;;;;-141.50;100.00;63355.56;4931654;29;20047;-77
2022/02/26 07:56:39;;;;;;;40.80;4.45;;;;;;;-141.50;100.00;63355.56;4933067;29;20051;-77
2022/02/26 07:59:06;;;;;;;39.05;5.45;;;;;;;-141.50;100.00;63355.56;4932243;29;20056;-79
2022/02/26 08:01:32;;;;;;;45.63;5.70;;;;;;;-141.50;100.00;63355.56;4931535;29;20130;-79
2022/02/26 08:03:59;;;;;;;34.53;5.43;;;;;;;-141.50;100.00;63355.56;4932206;29;20326;-77
2022/02/26 08:06:26;;;;;;;33.35;5.03;;;;;;;-141.50;100.00;63355.56;4932067;29;20055;-77
2022/02/26 08:08:52;;;;;;;37.72;5.57;;;;;;;-141.50;100.00;63355.56;4932052;29;20051;-77
2022/02/26 08:11:19;;;;;;;39.95;5.10;;;;;;;-141.50;100.00;63355.56;4929475;29;20051;-77
2022/02/26 08:13:45;;;;;;;31.13;5.43;;;;;;;-141.50;100.00;63355.56;4930624;29;20413;-78
2022/02/26 08:16:12;;;;;;;33.63;5.10;;;;;;;-141.50;100.00;63355.56;4929497;29;20107;-78
2022/02/26 08:18:38;;;;;;;49.53;5.80;;;;;;;-141.50;100.00;63355.56;4933026;29;20319;-78
2022/02/26 08:21:05;;;;;;;35.40;5.40;;;;;;;-141.50;100.00;63355.56;4931656;29;20059;-77
2022/02/26 08:23:31;;;;;;;44.97;6.78;;;;;;;-141.50;100.00;63355.56;4932130;29;20467;-76
2022/02/26 08:26:00;;;;;;;37.63;6.28;;;;;;;-141.50;100.00;63355.56;4932239;29;20047;-77
2022/02/26 08:28:27;;;;;;;39.65;6.90;;;;;;;-141.50;100.00;63355.56;4936318;29;20295;-76
2022/02/26 08:30:53;;;;;;;32.55;6.15;;;;;;;-141.50;100.00;63355.56;4934399;29;20110;-77
2022/02/26 08:33:20;;;;;;;43.75;5.88;;;;;;;-141.50;100.00;63355.56;4934750;29;20349;-78
2022/02/26 08:35:46;;;;;;;42.30;5.82;;;;;;;-141.50;100.00;63355.56;4937159;29;20052;-79
2022/02/26 08:38:13;;;;;;;41.45;6.35;;;;;;;-141.50;100.00;63355.56;4936713;29;20181;-77
2022/02/26 08:40:39;;;;;;;50.55;6.13;;;;;;;-141.50;100.00;63355.56;4934534;29;20048;-75
2022/02/26 08:43:06;;;;;;;38.78;6.10;;;;;;;-141.50;100.00;63355.56;4935782;29;20059;-77
2022/02/26 08:45:35;;;;;;;45.42;6.28;;;;;;;-141.50;100.00;63355.56;4934968;29;20060;-77
2022/02/26 08:48:02;;;;;;;44.55;5.72;;;;;;;-141.50;100.00;63355.56;4936370;29;20526;-78
2022/02/26 08:50:29;;;;;;;40.83;6.38;;;;;;;-141.50;100.00;63355.56;4937500;29;20106;-77
2022/02/26 08:52:55;;;;;;;40.97;6.43;;;;;;;-141.50;100.00;63355.56;4936640;29;20598;-78
2022/02/26 08:55:22;;;;;;;43.95;6.50;;;;;;;-141.50;100.00;63355.56;4937201;29;20492;-78
2022/02/26 08:57:48;;;;;;;40.70;6.45;;;;;;;-141.50;100.00;63355.56;4935879;29;20451;-78
2022/02/26 09:00:16;;;;;;;47.15;6.97;;;;;;;-141.50;100.00;63355.56;4937431;29;20056;-77
2022/02/26 09:02:43;;;;;;;35.10;6.05;;;;;;;-141.50;100.00;63355.56;4936228;29;20055;-77
2022/02/26 09:05:11;;;;;;;35.28;5.95;;;;;;;-141.50;100.00;63355.56;4937540;29;20139;-76
2022/02/26 09:07:38;;;;;;;41.65;6.40;;;;;;;-141.50;100.00;63355.56;4935475;29;20099;-77
2022/02/26 09:10:06;;;;;;;34.00;5.45;;;;;;;-141.50;100.00;63355.56;4935190;29;20119;-77
2022/02/26 09:12:33;;;;;;;29.63;5.65;;;;;;;-141.50;100.00;63355.56;4933484;29;20106;-78
2022/02/26 09:14:59;;;;;;;33.28;6.07;;;;;;;-141.50;100.00;63355.56;4933578;29;20114;-77
2022/02/26 09:17:26;;;;;;;41.15;6.32;;;;;;;-141.50;100.00;63355.56;4934505;29;20155;-78
2022/02/26 09:19:52;;;;;;;37.38;7.00;;;;;;;-141.50;100.00;63355.56;4937665;29;20456;-78
2022/02/26 09:22:19;;;;;;;48.15;6.57;;;;;;;-141.50;100.00;63355.56;4935113;29;20062;-77
2022/02/26 09:24:45;;;;;;;39.47;6.13;;;;;;;-141.50;100.00;63355.56;4934969;29;20444;-79
2022/02/26 09:27:13;;;;;;;44.90;6.32;;;;;;;-141.50;100.00;63355.56;4950208;29;20047;-76
2022/02/26 09:29:40;;;;;;;44.80;7.47;;;;;;;-141.50;100.00;63355.56;4952688;29;20071;-76
2022/02/26 09:32:09;;;;;;;26.98;6.43;;;;;;;-141.50;100.00;63355.56;4946200;29;20058;-78
2022/02/26 09:34:35;;;;;;;29.73;6.93;;;;;;;-141.50;100.00;63355.56;4939806;29;20083;-77
2022/02/26 09:37:02;;;;;;;36.95;6.63;;;;;;;-141.50;100.00;63355.56;4936849;29;20056;-79
2022/02/26 09:39:29;;;;;;;44.72;7.28;;;;;;;-141.50;100.00;63355.56;4945429;29;20098;-78
2022/02/26 09:41:57;;;;;;;32.28;7.50;;;;;;;-141.50;100.00;63355.56;4935038;29;20071;-78
2022/02/26 09:44:25;;;;;;;36.80;6.47;;;;;;;-141.50;100.00;63355.56;4933993;29;20439;-78
2022/02/26 09:46:51;;;;;;;33.78;6.32;;;;;;;-141.50;100.00;63355.56;4936343;29;20055;-79
2022/02/26 09:49:18;;;;;;;32.72;7.32;;;;;;;-141.50;100.00;63355.56;4936182;29;20071;-78
2022/02/26 09:51:45;;;;;;;35.72;6.90;;;;;;;-141.50;100.00;63355.56;4935528;29;20052;-78
2022/02/26 09:54:15;;;;;;;39.08;7.18;;;;;;;-141.50;100.00;63355.56;4938269;29;20397;-80
2022/02/26 09:56:41;;;;;;;35.75;7.07;;;;;;;-141.50;100.00;63355.56;4938207;29;20687;-79
2022/02/26 09:59:09;;;;;;;42.90;7.70;;;;;;;-141.50;100.00;63355.56;4936290;29;20048;-79
2022/02/26 10:01:53;;;;;;;34.88;6.75;;;;;;;-141.50;100.00;63355.56;4933617;29;20099;-77
2022/02/26 10:04:20;;;;;;;47.88;7.32;;;;;;;-141.50;100.00;63355.56;4934750;29;20129;-78
2022/02/26 10:06:47;;;;;;;48.30;8.13;;;;;;;-141.50;100.00;63355.56;4934795;29;20403;-78
2022/02/26 10:09:15;;;;;;;38.55;7.90;;;;;;;-141.50;100.00;63355.56;4934514;29;20052;-78
2022/02/26 10:11:42;;;;;;;36.35;7.75;;;;;;;-141.50;100.00;63355.56;4936205;29;20119;-78
2022/02/26 10:14:15;;;;;;;34.17;7.38;;;;;;;-141.50;100.00;63355.56;4936264;29;20051;-78
2022/02/26 10:16:48;;;;;;;44.67;8.25;;;;;;;-141.50;100.00;63355.56;4932323;29;20083;-78
2022/02/26 10:19:28;;;;;;;41.47;7.97;;;;;;;-141.50;100.00;63355.56;4935060;29;20108;-78
2022/02/26 10:21:58;;;;;;;35.67;8.27;;;;;;;-141.50;100.00;63355.56;4936219;29;20079;-79
2022/02/26 10:24:26;;;;;;;39.22;7.90;;;;;;;-141.50;100.00;63355.56;4935155;29;20063;-77
2022/02/26 10:26:56;;;;;;;36.22;8.10;;;;;;;-141.50;100.00;63355.56;4933516;29;20052;-76
2022/02/26 10:29:23;;;;;;;29.23;6.35;;;;;;;-141.50;100.00;63355.56;4932919;29;20078;-78
2022/02/26 10:31:59;;;;;;;39.58;7.85;;;;;;;-141.50;100.00;63355.56;4932423;29;20052;-79
2022/02/26 10:34:36;;;;;;;39.67;7.35;;;;;;;-141.50;100.00;63355.56;4934539;29;20055;-77
2022/02/26 10:37:16;;;;;;;35.92;8.10;;;;;;;-141.50;100.00;63355.56;4935027;29;20051;-76
2022/02/26 10:39:45;;;;;;;31.20;6.90;;;;;;;-141.50;100.00;63355.56;4932673;29;20056;-76
2022/02/26 10:42:30;;;;;;;37.95;6.57;;;;;;;-141.50;100.00;63355.56;4931930;29;20118;-77
2022/02/26 10:45:03;;;;;;;37.65;6.63;;;;;;;-141.50;100.00;63355.56;4933409;29;20456;-78
2022/02/26 10:47:32;;;;;;;30.17;7.18;;;;;;;-141.50;100.00;63355.56;4932741;29;20052;-77
2022/02/26 10:49:59;;;;;;;25.48;6.03;;;;;;;-141.50;100.00;63355.56;4932121;29;20135;-77
2022/02/26 10:52:32;;;;;;;32.35;6.15;;;;;;;-141.50;100.00;63355.56;4932486;29;20476;-77
2022/02/26 10:55:06;;;;;;;40.13;6.05;;;;;;;-141.50;100.00;63355.56;4932469;29;20051;-78
2022/02/26 10:57:33;;;;;;;28.63;5.97;;;;;;;-141.50;100.00;63355.56;4933018;29;20087;-77
2022/02/26 10:59:59;;;;;;;31.85;5.72;;;;;;;-141.50;100.00;63355.56;4931669;29;20063;-77
2022/02/26 11:02:26;;;;;;;28.85;5.05;;;;;;;-141.50;100.00;63355.56;4931819;29;20047;-77
2022/02/26 11:04:55;;;;;;;41.55;5.20;;;;;;;-141.50;100.00;63355.56;4933436;29;20056;-77